Time,TemperatureF,DewpointF,PressureIn,WindDirection,WindDirectionDegrees,WindSpeedMPH,WindSpeedGustMPH,Humidity,HourlyPrecipIn,Conditions,Clouds,dailyrainin,SolarRadiationWatts/m^2,SoftwareType,DateUTC
2013-01-09 03:00:00,25.0,20.0,30.22,SW,233,7.0,-999.0,81,-99.99,,,-99.99,0.130000,,2013-01-09 10:00:00,
2013-01-09 03:52:00,25.0,20.0,30.22,SW,233,7.0,-999.0,81,-99.99,,,-99.99,0.130000,,2013-01-09 10:52:00,
2013-01-09 04:00:00,23.0,19.0,30.20,WSW,247,5.0,-999.0,86,-99.99,,,-99.99,0.080000,,2013-01-09 11:00:00,
2013-01-09 04:53:00,23.0,19.0,30.20,WSW,247,5.0,-999.0,86,-99.99,,,-99.99,0.080000,,2013-01-09 11:53:00,
2013-01-09 05:00:00,21.0,18.0,30.23,SW,221,5.0,-999.0,87,-99.99,,,-99.99,0.020000,,2013-01-09 12:00:00,
2013-01-09 05:53:00,21.0,18.0,30.23,SW,221,5.0,-999.0,87,-99.99,,,-99.99,0.020000,,2013-01-09 12:53:00,
2013-01-09 06:00:00,22.0,18.0,30.26,SSW,200,6.0,-999.0,85,-99.99,,,-99.99,0.000000,,2013-01-09 13:00:00,
2013-01-09 06:53:00,22.0,18.0,30.26,SSW,200,6.0,-999.0,85,-99.99,,,-99.99,0.000000,,2013-01-09 13:53:00,
2013-01-09 07:00:00,23.0,19.0,30.29,SSW,195,7.0,-999.0,84,-99.99,,,-99.99,0.140000,,2013-01-09 14:00:00,
2013-01-09 07:53:00,23.0,19.0,30.29,SSW,195,7.0,-999.0,84,-99.99,,,-99.99,0.140000,,2013-01-09 14:53:00,
2013-01-09 08:00:00,28.0,21.0,30.31,SSW,210,6.0,-999.0,76,-99.99,,,-99.99,32.320000,,2013-01-09 15:00:00,
2013-01-09 08:53:00,28.0,21.0,30.31,SSW,210,6.0,-999.0,76,-99.99,,,-99.99,32.320000,,2013-01-09 15:53:00,
2013-01-09 09:00:00,33.0,24.0,30.33,SSW,201,12.0,-999.0,68,-99.99,,,-99.99,212.399994,,2013-01-09 16:00:00,
2013-01-09 09:53:00,33.0,24.0,30.33,SSW,201,12.0,-999.0,68,-99.99,,,-99.99,212.399994,,2013-01-09 16:53:00,
2013-01-09 10:00:00,38.0,28.0,30.34,SSW,204,11.0,-999.0,65,-99.99,,,-99.99,354.700012,,2013-01-09 17:00:00,
2013-01-09 10:53:00,38.0,28.0,30.34,SSW,204,11.0,-999.0,65,-99.99,,,-99.99,354.700012,,2013-01-09 17:53:00,
2013-01-09 11:00:00,41.0,29.0,30.30,SSW,202,11.0,-999.0,62,-99.99,,,-99.99,465.500000,,2013-01-09 18:00:00,
2013-01-09 11:53:00,41.0,29.0,30.30,SSW,202,11.0,-999.0,62,-99.99,,,-99.99,465.500000,,2013-01-09 18:53:00,
2013-01-09 12:00:00,44.0,30.0,30.26,SSW,207,8.0,-999.0,58,-99.99,,,-99.99,516.900024,,2013-01-09 19:00:00,
2013-01-09 12:53:00,44.0,30.0,30.26,SSW,207,8.0,-999.0,58,-99.99,,,-99.99,516.900024,,2013-01-09 19:53:00,
2013-01-09 13:00:00,45.0,32.0,30.24,South,177,7.0,-999.0,59,-99.99,,,-99.99,508.600006,,2013-01-09 20:00:00,
2013-01-09 13:53:00,45.0,32.0,30.24,South,177,7.0,-999.0,59,-99.99,,,-99.99,508.600006,,2013-01-09 20:53:00,
2013-01-09 14:00:00,47.0,33.0,30.22,SSE,158,6.0,-999.0,58,-99.99,,,-99.99,441.600006,,2013-01-09 21:00:00,
2013-01-09 14:53:00,47.0,33.0,30.22,SSE,158,6.0,-999.0,58,-99.99,,,-99.99,441.600006,,2013-01-09 21:53:00,
2013-01-09 15:00:00,45.0,34.0,30.22,SE,140,7.0,-999.0,64,-99.99,,,-99.99,324.899994,,2013-01-09 22:00:00,
2013-01-09 15:52:00,45.0,34.0,30.22,SE,140,7.0,-999.0,64,-99.99,,,-99.99,324.899994,,2013-01-09 22:52:00,
2013-01-09 16:00:00,40.0,32.0,30.20,SE,136,6.0,-999.0,73,-99.99,,,-99.99,169.699997,,2013-01-09 23:00:00,
2013-01-09 16:53:00,40.0,32.0,30.20,SE,136,6.0,-999.0,73,-99.99,,,-99.99,169.699997,,2013-01-09 23:53:00,
2013-01-09 17:00:00,36.0,30.0,30.17,SE,131,5.0,-999.0,78,-99.99,,,-99.99,19.730000,,2013-01-10 00:00:00,
2013-01-09 17:53:00,36.0,30.0,30.17,SE,131,5.0,-999.0,78,-99.99,,,-99.99,19.730000,,2013-01-10 00:53:00,
2013-01-09 23:00:00,32.0,25.0,30.15,SE,132,8.0,-999.0,76,-99.99,,,-99.99,0.000000,,2013-01-10 06:00:00,
2013-01-09 23:52:00,32.0,25.0,30.15,SE,132,8.0,-999.0,76,-99.99,,,-99.99,0.000000,,2013-01-10 06:52:00,